createdAt,value
2022-08-17T00:00:42.900Z,81.75
2022-08-17T00:03:06.025Z,82.50
2022-08-17T00:05:58.543Z,82.19
2022-08-17T00:08:38.697Z,81.65
2022-08-17T00:11:09.004Z,81.21
2022-08-17T00:13:45.187Z,81.15
2022-08-17T00:16:22.589Z,81.54
2022-08-17T00:19:13.554Z,82.12
2022-08-17T00:22:30.963Z,81.90
2022-08-17T00:24:33.958Z,81.26
2022-08-17T00:27:00.750Z,81.80
2022-08-17T00:29:27.558Z,81.81
2022-08-17T00:31:54.349Z,82.09
2022-08-17T00:34:21.133Z,81.99
2022-08-17T00:36:48.065Z,81.74
2022-08-17T00:39:14.928Z,81.79
2022-08-17T00:41:42.503Z,81.38
2022-08-17T00:44:09.840Z,80.97
2022-08-17T00:46:41.127Z,81.10
2022-08-17T00:49:10.743Z,81.78
2022-08-17T00:52:01.050Z,81.86
2022-08-17T00:54:41.680Z,81.16
2022-08-17T00:57:25.335Z,80.99
2022-08-17T01:00:05.298Z,81.61
2022-08-17T01:02:42.022Z,81.92
2022-08-17T01:05:19.053Z,81.78
2022-08-17T01:07:48.494Z,81.92
2022-08-17T01:10:59.503Z,81.99
2022-08-17T01:13:07.533Z,81.88
2022-08-17T01:15:41.650Z,82.05
2022-08-17T01:18:14.577Z,81.89
2022-08-17T01:20:51.731Z,81.62
2022-08-17T01:23:21.813Z,81.80
2022-08-17T01:25:55.826Z,81.93
2022-08-17T01:28:53.400Z,82.89
2022-08-17T01:31:11.667Z,82.50
2022-08-17T01:33:38.783Z,82.15
2022-08-17T01:36:07.324Z,82.66
2022-08-17T01:38:37.024Z,82.73
2022-08-17T01:41:10.709Z,82.29
2022-08-17T01:43:48.091Z,82.10
2022-08-17T01:46:27.708Z,82.04
2022-08-17T01:48:57.671Z,82.12
2022-08-17T01:51:33.208Z,82.38
2022-08-17T01:54:09.277Z,82.12
2022-08-17T01:56:41.208Z,82.46
2022-08-17T01:59:08.033Z,82.02
2022-08-17T02:01:36.013Z,82.10
2022-08-17T02:04:04.261Z,82.10
2022-08-17T02:06:52.675Z,82.45
2022-08-17T02:09:25.584Z,83.41
2022-08-17T02:11:56.761Z,83.28
2022-08-17T02:14:25.351Z,83.17
2022-08-17T02:16:53.182Z,83.17
2022-08-17T02:19:21.966Z,83.26
2022-08-17T02:21:51.618Z,83.31
2022-08-17T02:25:00.454Z,83.92
2022-08-17T02:27:16.726Z,83.52
2022-08-17T02:29:43.563Z,83.42
2022-08-17T02:32:28.227Z,84.08
2022-08-17T02:34:57.242Z,84.33
2022-08-17T02:37:25.656Z,84.13
2022-08-17T02:39:52.847Z,84.19
2022-08-17T02:42:27.909Z,84.49
2022-08-17T02:44:54.989Z,84.76
2022-08-17T02:47:21.804Z,84.65
2022-08-17T02:49:55.843Z,84.49
2022-08-17T02:52:43.079Z,84.17
2022-08-17T02:55:29.395Z,83.76
2022-08-17T02:57:57.069Z,83.98
2022-08-17T03:00:34.121Z,84.01
2022-08-17T03:03:04.614Z,84.00
2022-08-17T03:05:36.184Z,84.07
2022-08-17T03:08:04.586Z,83.73
2022-08-17T03:10:31.539Z,83.72
2022-08-17T03:12:59.608Z,83.84
2022-08-17T03:15:31.578Z,83.75
2022-08-17T03:17:59.798Z,83.65
2022-08-17T03:20:29.474Z,83.42
2022-08-17T03:23:01.882Z,83.22
2022-08-17T03:25:36.158Z,83.73
2022-08-17T03:28:05.470Z,84.09
2022-08-17T03:30:33.224Z,83.87
2022-08-17T03:33:04.032Z,83.48
2022-08-17T03:35:34.298Z,83.88
2022-08-17T03:38:01.905Z,83.87
2022-08-17T03:40:55.841Z,83.83
2022-08-17T03:43:18.497Z,83.42
2022-08-17T03:46:03.856Z,83.55
2022-08-17T03:48:51.404Z,83.83
2022-08-17T03:51:42.336Z,84.51
2022-08-17T03:54:29.484Z,84.20
2022-08-17T03:57:09.830Z,83.84
2022-08-17T03:59:37.582Z,84.00
2022-08-17T04:02:11.254Z,83.78
2022-08-17T04:04:39.330Z,83.22
2022-08-17T04:07:07.582Z,83.15
2022-08-17T04:09:34.902Z,83.62
2022-08-17T04:12:04.596Z,83.78
2022-08-17T04:14:52.659Z,83.97
2022-08-17T04:17:29.015Z,83.94
2022-08-17T04:19:56.905Z,84.07
2022-08-17T04:22:30.070Z,83.90
2022-08-17T04:25:20.358Z,83.84
2022-08-17T04:27:48.803Z,83.96
2022-08-17T04:30:16.012Z,83.94
2022-08-17T04:33:04.386Z,83.80
2022-08-17T04:35:41.950Z,84.66
2022-08-17T04:38:18.605Z,85.05
2022-08-17T04:41:04.285Z,84.72
2022-08-17T04:43:34.156Z,84.49
2022-08-17T04:46:08.180Z,84.63
2022-08-17T04:48:42.784Z,84.56
2022-08-17T04:51:17.692Z,83.98
2022-08-17T04:53:54.172Z,84.11
2022-08-17T04:56:22.471Z,84.21
2022-08-17T04:58:53.097Z,84.35
2022-08-17T05:01:23.664Z,83.56
2022-08-17T05:03:53.961Z,83.88
2022-08-17T05:06:21.318Z,83.88
2022-08-17T05:08:48.266Z,84.39
2022-08-17T05:11:15.268Z,84.54
2022-08-17T05:13:42.311Z,84.41
2022-08-17T05:16:09.287Z,84.32
2022-08-17T05:18:37.367Z,84.33
2022-08-17T05:21:04.838Z,84.57
2022-08-17T05:23:41.808Z,84.43
2022-08-17T05:26:26.416Z,84.35
2022-08-17T05:28:57.117Z,83.37
2022-08-17T05:31:26.936Z,83.17
2022-08-17T05:33:53.878Z,83.14
2022-08-17T05:36:41.831Z,83.29
2022-08-17T05:39:07.564Z,83.16
2022-08-17T05:41:34.409Z,83.02
2022-08-17T05:44:05.389Z,83.42
2022-08-17T05:46:40.208Z,83.19
2022-08-17T05:49:08.589Z,82.90
2022-08-17T05:51:53.410Z,82.28
2022-08-17T05:55:00.841Z,82.22
2022-08-17T05:57:43.534Z,82.50
2022-08-17T06:00:20.363Z,82.66
2022-08-17T06:03:14.306Z,82.66
2022-08-17T06:06:39.994Z,82.83
2022-08-17T06:10:02.446Z,82.29
2022-08-17T06:12:56.889Z,81.63
2022-08-17T06:15:31.411Z,81.12
2022-08-17T06:18:02.553Z,81.18
2022-08-17T06:20:48.939Z,80.12
2022-08-17T06:23:48.365Z,80.15
2022-08-17T06:26:27.617Z,79.05
2022-08-17T06:29:27.145Z,78.91
2022-08-17T06:31:53.935Z,78.09
2022-08-17T06:34:21.834Z,78.05
2022-08-17T06:37:09.376Z,77.89
2022-08-17T06:40:23.517Z,77.25
2022-08-17T06:43:05.188Z,77.60
2022-08-17T06:45:49.393Z,77.49
2022-08-17T06:48:40.947Z,78.93
2022-08-17T06:51:39.638Z,78.25
2022-08-17T06:54:18.809Z,76.42
2022-08-17T06:56:55.208Z,76.97
2022-08-17T06:59:55.258Z,77.25
2022-08-17T07:02:56.298Z,75.36
2022-08-17T07:05:39.189Z,75.60
2022-08-17T07:08:18.649Z,75.00
2022-08-17T07:10:58.282Z,73.21
2022-08-17T07:14:22.513Z,69.83
2022-08-17T07:16:51.734Z,65.55
2022-08-17T07:19:32.350Z,62.22
2022-08-17T07:22:23.942Z,59.90
2022-08-17T07:24:58.466Z,58.56
2022-08-17T07:27:45.847Z,57.05
2022-08-17T07:30:52.584Z,56.20
2022-08-17T07:33:25.829Z,54.63
2022-08-17T07:35:53.704Z,54.82
2022-08-17T07:38:35.749Z,53.25
2022-08-17T07:41:08.952Z,53.42
2022-08-17T07:43:38.173Z,52.85
2022-08-17T07:46:53.207Z,52.68
2022-08-17T07:49:36.454Z,52.73
2022-08-17T07:52:47.401Z,52.66
2022-08-17T07:54:58.509Z,52.80
2022-08-17T07:57:35.734Z,52.05
2022-08-17T08:00:03.039Z,51.83
2022-08-17T08:02:43.237Z,51.60
2022-08-17T08:05:44.292Z,51.89
2022-08-17T08:08:45.067Z,50.95
2022-08-17T08:11:15.775Z,50.54
2022-08-17T08:13:45.869Z,50.94
2022-08-17T08:16:24.478Z,50.71
2022-08-17T08:19:01.050Z,49.62
2022-08-17T08:21:47.295Z,49.33
2022-08-17T08:24:22.598Z,49.02
2022-08-17T08:27:38.993Z,49.00
2022-08-17T08:30:19.350Z,48.76
2022-08-17T08:33:10.661Z,48.53
2022-08-17T08:35:53.610Z,49.12
2022-08-17T08:38:47.497Z,48.06
2022-08-17T08:41:47.212Z,48.43
2022-08-17T08:45:00.282Z,48.97
2022-08-17T08:48:06.793Z,47.64
2022-08-17T08:51:02.450Z,48.05
2022-08-17T08:53:44.930Z,47.67
2022-08-17T08:56:35.412Z,48.32
2022-08-17T08:59:08.149Z,48.21
2022-08-17T09:02:03.601Z,48.43
2022-08-17T09:05:13.033Z,48.22
2022-08-17T09:07:43.921Z,47.96
2022-08-17T09:10:35.283Z,47.91
2022-08-17T09:13:22.906Z,46.83
2022-08-17T09:15:59.283Z,45.83
2022-08-17T09:19:02.817Z,46.62
2022-08-17T09:21:38.353Z,46.65
2022-08-17T09:24:40.129Z,46.29
2022-08-17T09:27:13.940Z,46.43
2022-08-17T09:29:49.681Z,46.14
2022-08-17T09:32:38.210Z,45.90
2022-08-17T09:35:20.982Z,45.20
2022-08-17T09:37:53.613Z,44.35
2022-08-17T09:40:29.626Z,45.04
2022-08-17T09:43:16.710Z,44.42
2022-08-17T09:46:04.660Z,43.79
2022-08-17T09:48:42.160Z,44.16
2022-08-17T09:51:25.316Z,43.77
2022-08-17T09:53:52.133Z,43.72
2022-08-17T09:57:29.032Z,44.07
2022-08-17T10:00:12.325Z,43.79
2022-08-17T10:03:21.188Z,43.39
2022-08-17T10:06:21.989Z,43.70
2022-08-17T10:09:10.144Z,43.99
2022-08-17T10:12:03.755Z,44.19
2022-08-17T10:14:43.702Z,44.16
2022-08-17T10:17:32.593Z,42.83
2022-08-17T10:20:22.259Z,43.29
2022-08-17T10:23:18.725Z,42.92
2022-08-17T10:26:11.658Z,43.18
2022-08-17T10:29:06.830Z,43.54
2022-08-17T10:31:56.261Z,43.40
2022-08-17T10:34:41.131Z,43.45
2022-08-17T10:37:55.161Z,43.34
2022-08-17T10:40:49.183Z,43.14
2022-08-17T10:43:37.293Z,42.73
2022-08-17T10:46:36.337Z,41.58
2022-08-17T10:49:18.162Z,42.24
2022-08-17T10:51:54.991Z,42.46
2022-08-17T10:54:24.406Z,42.21
2022-08-17T10:56:57.001Z,42.12
2022-08-17T10:59:35.691Z,41.67
2022-08-17T11:04:57.361Z,40.89
2022-08-17T11:07:32.879Z,40.48
2022-08-17T11:10:08.518Z,40.39
2022-08-17T11:12:44.423Z,39.12
2022-08-17T11:16:04.800Z,39.55
2022-08-17T11:19:35.331Z,39.20
2022-08-17T11:22:48.344Z,38.83
2022-08-17T11:25:22.755Z,38.47
2022-08-17T11:28:05.774Z,37.75
2022-08-17T11:30:44.663Z,37.50
2022-08-17T11:33:30.406Z,36.09
2022-08-17T11:36:25.474Z,36.16
2022-08-17T11:39:20.463Z,36.72
2022-08-17T11:42:01.013Z,35.27
2022-08-17T11:44:52.031Z,34.95
2022-08-17T11:51:19.412Z,35.45
2022-08-17T11:53:46.200Z,34.71
2022-08-17T11:56:49.505Z,34.38
2022-08-17T11:59:35.941Z,33.83
2022-08-17T12:02:35.130Z,32.80
2022-08-17T12:05:14.647Z,33.65
2022-08-17T12:08:08.109Z,33.11
2022-08-17T12:11:00.853Z,33.43
2022-08-17T12:13:38.564Z,33.18
2022-08-17T12:16:10.113Z,33.75
2022-08-17T12:18:42.142Z,33.15
2022-08-17T12:21:17.876Z,33.39
2022-08-17T12:24:23.229Z,33.17
2022-08-17T12:26:56.757Z,33.36
2022-08-17T12:29:38.462Z,32.84
2022-08-17T12:32:07.408Z,33.37
2022-08-17T12:34:40.961Z,32.97
2022-08-17T12:37:20.018Z,33.35
2022-08-17T12:40:10.239Z,32.13
2022-08-17T12:42:39.498Z,31.96
2022-08-17T12:45:29.386Z,31.41
2022-08-17T12:48:07.911Z,31.71
2022-08-17T12:50:41.241Z,31.37
2022-08-17T12:53:23.820Z,30.85
2022-08-17T12:55:52.060Z,31.28
2022-08-17T12:58:33.263Z,31.57
2022-08-17T13:01:11.118Z,31.77
2022-08-17T13:03:49.499Z,31.83
2022-08-17T13:06:34.645Z,31.93
2022-08-17T13:09:33.539Z,31.97
2022-08-17T13:12:07.942Z,31.57
2022-08-17T13:14:35.460Z,31.52
2022-08-17T13:17:08.587Z,31.71
2022-08-17T13:19:50.122Z,31.32
2022-08-17T13:22:23.170Z,31.18
2022-08-17T13:25:09.233Z,31.65
2022-08-17T13:27:36.318Z,31.95
2022-08-17T13:30:12.241Z,32.12
2022-08-17T13:32:47.296Z,32.33
2022-08-17T13:35:39.832Z,32.71
2022-08-17T13:38:39.534Z,32.22
2022-08-17T13:41:07.565Z,31.87
2022-08-17T13:43:50.739Z,32.43
2022-08-17T13:46:31.686Z,31.92
2022-08-17T13:49:04.209Z,31.14
2022-08-17T13:51:43.716Z,31.49
2022-08-17T13:54:36.121Z,31.78
2022-08-17T13:57:07.990Z,31.39
2022-08-17T13:59:54.527Z,31.20
2022-08-17T14:02:28.378Z,31.64
2022-08-17T14:04:56.349Z,32.05
2022-08-17T14:07:36.301Z,31.34
2022-08-17T14:10:23.993Z,31.43
2022-08-17T14:12:51.033Z,31.54
2022-08-17T14:15:22.012Z,32.08
2022-08-17T14:17:49.411Z,32.04
2022-08-17T14:20:20.068Z,32.20
2022-08-17T14:22:53.106Z,32.24
2022-08-17T14:25:27.630Z,31.41
2022-08-17T14:27:55.635Z,31.26
2022-08-17T14:30:26.949Z,31.22
2022-08-17T14:32:58.193Z,31.08
2022-08-17T14:35:28.009Z,31.40
2022-08-17T14:37:55.986Z,31.64
2022-08-17T14:40:25.077Z,31.25
2022-08-17T14:42:53.753Z,31.12
2022-08-17T14:45:30.023Z,30.85
2022-08-17T14:47:59.336Z,31.13
2022-08-17T14:50:27.305Z,30.94
2022-08-17T14:52:56.233Z,30.12
2022-08-17T14:55:25.517Z,30.03
2022-08-17T14:57:52.591Z,29.81
2022-08-17T15:00:19.744Z,30.21
2022-08-17T15:02:50.973Z,30.56
2022-08-17T15:05:17.975Z,29.95
2022-08-17T15:07:44.809Z,29.91
2022-08-17T15:10:14.146Z,30.68
2022-08-17T15:12:42.249Z,29.98
2022-08-17T15:15:12.681Z,30.45
2022-08-17T15:17:44.837Z,30.86
2022-08-17T15:20:19.671Z,30.43
2022-08-17T15:22:55.414Z,30.62
2022-08-17T15:25:25.400Z,30.65
2022-08-17T15:27:52.784Z,31.14
2022-08-17T15:30:20.850Z,31.65
2022-08-17T15:32:54.484Z,31.61
2022-08-17T15:35:27.442Z,31.60
2022-08-17T15:38:06.249Z,31.59
2022-08-17T15:40:41.748Z,32.16
2022-08-17T15:43:23.284Z,32.54
2022-08-17T15:46:02.826Z,31.85
2022-08-17T15:48:43.880Z,32.37
2022-08-17T15:51:24.202Z,32.14
2022-08-17T15:53:58.503Z,32.45
2022-08-17T15:56:27.177Z,33.14
2022-08-17T15:58:57.535Z,32.84
2022-08-17T16:03:13.014Z,32.79
2022-08-17T16:04:30.168Z,33.39
2022-08-17T16:06:58.881Z,33.26
2022-08-17T16:09:25.729Z,33.62
2022-08-17T16:11:53.860Z,34.08
2022-08-17T16:14:23.178Z,34.13
2022-08-17T16:16:51.809Z,34.47
2022-08-17T16:19:18.741Z,34.76
2022-08-17T16:21:45.606Z,34.63
2022-08-17T16:24:13.659Z,35.14
2022-08-17T16:26:42.549Z,34.66
2022-08-17T16:29:09.696Z,34.21
2022-08-17T16:31:37.896Z,34.88
2022-08-17T16:34:17.875Z,35.05
2022-08-17T16:36:55.066Z,35.17
2022-08-17T16:39:26.525Z,35.51
2022-08-17T16:41:53.753Z,35.32
2022-08-17T16:44:22.319Z,35.24
2022-08-17T16:46:50.447Z,35.76
2022-08-17T16:49:36.237Z,35.58
2022-08-17T16:52:10.602Z,35.88
2022-08-17T16:54:43.980Z,35.98
2022-08-17T16:57:17.560Z,35.92
2022-08-17T16:59:48.168Z,36.52
2022-08-17T17:02:29.778Z,36.45
2022-08-17T17:05:07.622Z,36.82
2022-08-17T17:07:49.807Z,36.88
2022-08-17T17:10:23.812Z,37.22
2022-08-17T17:13:02.714Z,37.40
2022-08-17T17:15:57.517Z,37.78
2022-08-17T17:18:43.823Z,37.50
2022-08-17T17:21:20.286Z,37.37
2022-08-17T17:23:59.944Z,38.50
2022-08-17T17:26:58.199Z,38.40
2022-08-17T17:29:47.715Z,38.13
2022-08-17T17:32:24.959Z,38.33
2022-08-17T17:35:01.931Z,38.35
2022-08-17T17:37:34.799Z,39.04
2022-08-17T17:40:07.024Z,39.25
2022-08-17T17:42:35.814Z,40.42
2022-08-17T17:45:07.290Z,40.85
2022-08-17T17:47:35.625Z,40.94
2022-08-17T17:50:05.770Z,41.31
2022-08-17T17:52:57.284Z,41.91
2022-08-17T17:55:54.531Z,41.71
2022-08-17T17:58:49.122Z,41.79
2022-08-17T18:01:44.490Z,42.71
2022-08-17T18:04:31.568Z,43.36
2022-08-17T18:07:23.036Z,44.22
2022-08-17T18:10:29.457Z,44.66
2022-08-17T18:13:08.265Z,44.82
2022-08-17T18:15:51.410Z,44.36
2022-08-17T18:18:18.280Z,44.80
2022-08-17T18:20:54.129Z,45.24
2022-08-17T18:23:27.941Z,45.63
2022-08-17T18:25:58.692Z,45.63
2022-08-17T18:28:38.122Z,46.43
2022-08-17T18:31:18.542Z,46.21
2022-08-17T18:33:52.708Z,46.75
2022-08-17T18:36:36.515Z,48.05
2022-08-17T18:39:16.986Z,48.72
2022-08-17T18:41:48.867Z,49.52
2022-08-17T18:44:42.797Z,49.96
2022-08-17T18:47:26.077Z,49.84
2022-08-17T18:50:25.701Z,49.84
2022-08-17T18:52:55.306Z,49.86
2022-08-17T18:55:28.503Z,50.50
2022-08-17T18:57:57.506Z,50.56
2022-08-17T19:00:30.143Z,49.80
2022-08-17T19:03:07.491Z,48.10
2022-08-17T19:05:46.703Z,47.33
2022-08-17T19:08:30.973Z,47.43
2022-08-17T19:11:28.826Z,47.06
2022-08-17T19:14:06.002Z,46.16
2022-08-17T19:16:46.313Z,46.30
2022-08-17T19:19:53.070Z,46.10
2022-08-17T19:22:30.929Z,46.08
2022-08-17T19:25:12.692Z,45.87
2022-08-17T19:27:57.863Z,46.66
2022-08-17T19:30:25.474Z,46.45
2022-08-17T19:32:53.265Z,46.50
2022-08-17T19:35:22.339Z,46.73
2022-08-17T19:38:12.857Z,47.06
2022-08-17T19:41:46.564Z,47.13
2022-08-17T19:44:29.683Z,47.37
2022-08-17T19:47:30.534Z,47.06
2022-08-17T19:50:14.305Z,47.25
2022-08-17T19:53:08.499Z,47.42
2022-08-17T19:56:21.705Z,47.63
2022-08-17T19:59:01.397Z,47.02
2022-08-17T20:02:21.923Z,47.61
2022-08-17T20:04:51.223Z,47.99
2022-08-17T20:07:28.433Z,48.47
2022-08-17T20:10:05.352Z,48.15
2022-08-17T20:12:39.596Z,48.52
2022-08-17T20:15:24.508Z,48.69
2022-08-17T20:17:52.174Z,48.76
2022-08-17T20:20:24.057Z,47.97
2022-08-17T20:23:18.006Z,48.00
2022-08-17T20:25:58.293Z,48.30
2022-08-17T20:28:30.671Z,48.27
2022-08-17T20:30:58.843Z,48.43
2022-08-17T20:33:36.945Z,48.71
2022-08-17T20:36:24.883Z,49.59
2022-08-17T20:38:57.873Z,49.26
2022-08-17T20:41:27.073Z,48.90
2022-08-17T20:44:06.002Z,52.16
2022-08-17T20:46:38.683Z,57.78
2022-08-17T20:49:11.204Z,61.11
2022-08-17T20:52:01.948Z,63.20
2022-08-17T20:54:41.306Z,66.40
2022-08-17T20:57:14.353Z,68.56
2022-08-17T20:59:45.160Z,70.67
2022-08-17T21:02:21.053Z,70.49
2022-08-17T21:04:50.763Z,73.20
2022-08-17T21:07:43.411Z,75.32
2022-08-17T21:10:21.947Z,76.85
2022-08-17T21:13:08.593Z,76.17
2022-08-17T21:16:28.440Z,79.82
2022-08-17T21:19:19.428Z,81.77
2022-08-17T21:22:08.653Z,81.38
2022-08-17T21:24:55.808Z,81.55
2022-08-17T21:27:38.648Z,81.45
2022-08-17T21:30:06.650Z,81.06
2022-08-17T21:32:40.504Z,81.86
2022-08-17T21:35:11.541Z,82.87
2022-08-17T21:37:44.624Z,84.13
2022-08-17T21:40:11.440Z,84.22
2022-08-17T21:42:52.888Z,84.43
2022-08-17T21:45:40.192Z,84.69
2022-08-17T21:48:24.680Z,86.43
2022-08-17T21:51:02.222Z,86.36
2022-08-17T21:53:38.971Z,86.66
2022-08-17T21:56:08.574Z,86.01
2022-08-17T21:58:41.818Z,86.38
2022-08-17T22:01:31.387Z,87.27
2022-08-17T22:04:15.530Z,87.54
2022-08-17T22:06:54.203Z,87.06
2022-08-17T22:09:35.989Z,87.10
2022-08-17T22:12:24.332Z,86.27
2022-08-17T22:15:01.432Z,86.80
2022-08-17T22:17:46.433Z,86.31
2022-08-17T22:20:20.889Z,86.89
2022-08-17T22:23:09.260Z,87.89
2022-08-17T22:25:56.070Z,88.94
2022-08-17T22:28:53.062Z,87.26
2022-08-17T22:31:29.692Z,87.42
2022-08-17T22:34:01.983Z,87.78
2022-08-17T22:36:37.333Z,87.08
2022-08-17T22:39:10.021Z,86.52
2022-08-17T22:42:00.402Z,85.93
2022-08-17T22:44:37.942Z,86.69
2022-08-17T22:47:31.833Z,88.32
2022-08-17T22:50:06.167Z,89.10
2022-08-17T22:53:02.495Z,89.43
2022-08-17T22:55:52.243Z,89.37
2022-08-17T22:58:42.813Z,90.79
2022-08-17T23:01:33.429Z,90.33
2022-08-17T23:04:06.777Z,89.42
2022-08-17T23:06:37.221Z,89.01
2022-08-17T23:09:07.532Z,89.25
2022-08-17T23:11:49.231Z,89.70
2022-08-17T23:14:20.111Z,89.51
2022-08-17T23:16:53.055Z,90.32
2022-08-17T23:19:21.791Z,91.13
2022-08-17T23:21:50.559Z,92.10
2022-08-17T23:24:25.634Z,92.18
2022-08-17T23:26:53.665Z,92.83
2022-08-17T23:29:21.611Z,92.34
2022-08-17T23:31:50.612Z,92.50
2022-08-17T23:34:18.595Z,92.23
2022-08-17T23:36:53.232Z,91.66
2022-08-17T23:39:24.495Z,90.92
2022-08-17T23:41:59.395Z,90.46
2022-08-17T23:44:28.876Z,90.80
2022-08-17T23:46:56.144Z,91.12
2022-08-17T23:49:25.166Z,90.88
2022-08-17T23:51:54.798Z,92.64
2022-08-17T23:54:35.441Z,94.01
2022-08-17T23:57:04.898Z,94.31
2022-08-17T23:59:33.989Z,95.14
